sensor_id;sensor_type;location;lat;lon;timestamp;pressure;altitude;pressure_sealevel;temperature;humidity
39739;BME280;25422;48.286;8.484;2024-01-15T00:01:09;92991.47;;;-5.71;100.00
39739;BME280;25422;48.286;8.484;2024-01-15T00:03:34;92988.94;;;-5.71;100.00
39739;BME280;25422;48.286;8.484;2024-01-15T00:06:00;92982.41;;;-5.76;100.00
39739;BME280;25422;48.286;8.484;2024-01-15T00:08:25;92985.88;;;-5.77;100.00
39739;BME280;25422;48.286;8.484;2024-01-15T00:10:51;92981.09;;;-5.81;100.00
39739;BME280;25422;48.286;8.484;2024-01-15T00:13:16;92986.09;;;-5.80;100.00
39739;BME280;25422;48.286;8.484;2024-01-15T00:15:42;92987.94;;;-5.82;100.00
39739;BME280;25422;48.286;8.484;2024-01-15T00:18:07;92983.53;;;-5.80;100.00
39739;BME280;25422;48.286;8.484;2024-01-15T00:20:32;92987.00;;;-5.81;100.00
39739;BME280;25422;48.286;8.484;2024-01-15T00:22:58;92987.50;;;-5.76;100.00
39739;BME280;25422;48.286;8.484;2024-01-15T00:25:23;92982.94;;;-5.70;100.00
39739;BME280;25422;48.286;8.484;2024-01-15T00:27:49;92988.03;;;-5.70;100.00
39739;BME280;25422;48.286;8.484;2024-01-15T00:30:14;92984.47;;;-5.68;100.00
39739;BME280;25422;48.286;8.484;2024-01-15T00:32:40;92988.03;;;-5.70;100.00
39739;BME280;25422;48.286;8.484;2024-01-15T00:35:05;92988.66;;;-5.67;100.00
39739;BME280;25422;48.286;8.484;2024-01-15T00:37:31;92991.09;;;-5.65;100.00
39739;BME280;25422;48.286;8.484;2024-01-15T00:39:57;92991.69;;;-5.62;100.00
39739;BME280;25422;48.286;8.484;2024-01-15T00:42:22;92989.06;;;-5.60;100.00
39739;BME280;25422;48.286;8.484;2024-01-15T00:44:48;92981.00;;;-5.54;100.00
39739;BME280;25422;48.286;8.484;2024-01-15T00:47:13;92984.66;;;-5.45;100.00
39739;BME280;25422;48.286;8.484;2024-01-15T00:49:39;92986.69;;;-5.37;100.00
39739;BME280;25422;48.286;8.484;2024-01-15T00:52:05;92984.84;;;-5.35;100.00
39739;BME280;25422;48.286;8.484;2024-01-15T00:54:30;92986.28;;;-5.31;100.00
39739;BME280;25422;48.286;8.484;2024-01-15T00:56:56;92986.91;;;-5.28;100.00
39739;BME280;25422;48.286;8.484;2024-01-15T00:59:21;92982.72;;;-5.29;100.00
39739;BME280;25422;48.286;8.484;2024-01-15T01:01:46;92979.84;;;-5.24;100.00
39739;BME280;25422;48.286;8.484;2024-01-15T01:04:12;92983.00;;;-5.20;100.00
39739;BME280;25422;48.286;8.484;2024-01-15T01:06:38;92980.97;;;-5.15;100.00
39739;BME280;25422;48.286;8.484;2024-01-15T01:09:04;92989.41;;;-5.15;100.00
39739;BME280;25422;48.286;8.484;2024-01-15T01:11:30;92979.94;;;-5.13;100.00
39739;BME280;25422;48.286;8.484;2024-01-15T01:13:55;92980.75;;;-5.12;100.00
39739;BME280;25422;48.286;8.484;2024-01-15T01:16:22;92972.19;;;-5.11;100.00
39739;BME280;25422;48.286;8.484;2024-01-15T01:18:47;92975.53;;;-5.11;100.00
39739;BME280;25422;48.286;8.484;2024-01-15T01:21:13;92979.94;;;-5.13;100.00
39739;BME280;25422;48.286;8.484;2024-01-15T01:23:38;92981.34;;;-5.09;100.00
39739;BME280;25422;48.286;8.484;2024-01-15T01:26:04;92980.41;;;-5.08;100.00
39739;BME280;25422;48.286;8.484;2024-01-15T01:28:29;92981.25;;;-5.07;100.00
39739;BME280;25422;48.286;8.484;2024-01-15T01:30:55;92976.84;;;-5.05;100.00
39739;BME280;25422;48.286;8.484;2024-01-15T01:33:20;92978.47;;;-5.04;100.00
39739;BME280;25422;48.286;8.484;2024-01-15T01:35:45;92986.63;;;-4.99;100.00
39739;BME280;25422;48.286;8.484;2024-01-15T01:38:12;92981.19;;;-4.94;100.00
39739;BME280;25422;48.286;8.484;2024-01-15T01:40:37;92977.63;;;-4.92;100.00
39739;BME280;25422;48.286;8.484;2024-01-15T01:43:04;92980.78;;;-4.88;100.00
39739;BME280;25422;48.286;8.484;2024-01-15T01:45:30;92983.22;;;-4.86;100.00
39739;BME280;25422;48.286;8.484;2024-01-15T01:47:56;92981.47;;;-4.86;100.00
39739;BME280;25422;48.286;8.484;2024-01-15T01:50:21;92984.53;;;-4.81;100.00
39739;BME280;25422;48.286;8.484;2024-01-15T01:52:48;92989.84;;;-4.84;100.00
39739;BME280;25422;48.286;8.484;2024-01-15T01:55:14;92997.19;;;-4.79;100.00
39739;BME280;25422;48.286;8.484;2024-01-15T01:57:40;92989.41;;;-4.78;100.00
39739;BME280;25422;48.286;8.484;2024-01-15T02:00:06;92982.97;;;-4.70;100.00
39739;BME280;25422;48.286;8.484;2024-01-15T02:02:37;92983.66;;;-4.68;100.00
39739;BME280;25422;48.286;8.484;2024-01-15T02:05:04;92979.41;;;-4.68;100.00
39739;BME280;25422;48.286;8.484;2024-01-15T02:07:30;92974.19;;;-4.66;100.00
39739;BME280;25422;48.286;8.484;2024-01-15T02:09:56;92980.19;;;-4.67;100.00
39739;BME280;25422;48.286;8.484;2024-01-15T02:12:21;92976.63;;;-4.65;100.00
39739;BME280;25422;48.286;8.484;2024-01-15T02:14:47;92965.56;;;-4.65;100.00
39739;BME280;25422;48.286;8.484;2024-01-15T02:17:12;92963.84;;;-4.65;100.00
39739;BME280;25422;48.286;8.484;2024-01-15T02:19:38;92960.38;;;-4.64;100.00
39739;BME280;25422;48.286;8.484;2024-01-15T02:22:04;92961.91;;;-4.61;100.00
39739;BME280;25422;48.286;8.484;2024-01-15T02:24:30;92956.09;;;-4.63;100.00
39739;BME280;25422;48.286;8.484;2024-01-15T02:26:55;92962.81;;;-4.62;100.00
39739;BME280;25422;48.286;8.484;2024-01-15T02:29:21;92953.31;;;-4.60;100.00
39739;BME280;25422;48.286;8.484;2024-01-15T02:31:46;92955.97;;;-4.62;100.00
39739;BME280;25422;48.286;8.484;2024-01-15T02:34:12;92953.41;;;-4.62;100.00
39739;BME280;25422;48.286;8.484;2024-01-15T02:36:37;92955.16;;;-4.62;100.00
39739;BME280;25422;48.286;8.484;2024-01-15T02:39:02;92954.25;;;-4.61;100.00
39739;BME280;25422;48.286;8.484;2024-01-15T02:41:28;92960.97;;;-4.60;100.00
39739;BME280;25422;48.286;8.484;2024-01-15T02:43:53;92954.03;;;-4.58;100.00
39739;BME280;25422;48.286;8.484;2024-01-15T02:46:19;92962.50;;;-4.58;100.00
39739;BME280;25422;48.286;8.484;2024-01-15T02:48:44;92959.81;;;-4.56;100.00
39739;BME280;25422;48.286;8.484;2024-01-15T02:51:10;92950.75;;;-4.60;100.00
39739;BME280;25422;48.286;8.484;2024-01-15T02:53:36;92945.75;;;-4.62;100.00
39739;BME280;25422;48.286;8.484;2024-01-15T02:56:02;92957.72;;;-4.62;100.00
39739;BME280;25422;48.286;8.484;2024-01-15T02:58:27;92956.09;;;-4.63;100.00
39739;BME280;25422;48.286;8.484;2024-01-15T03:00:53;92953.03;;;-4.68;100.00
39739;BME280;25422;48.286;8.484;2024-01-15T03:03:18;92950.59;;;-4.70;100.00
39739;BME280;25422;48.286;8.484;2024-01-15T03:05:43;92952.25;;;-4.69;100.00
39739;BME280;25422;48.286;8.484;2024-01-15T03:08:09;92957.66;;;-4.74;100.00
39739;BME280;25422;48.286;8.484;2024-01-15T03:10:34;92966.44;;;-4.78;100.00
39739;BME280;25422;48.286;8.484;2024-01-15T03:12:59;92962.47;;;-4.82;100.00
39739;BME280;25422;48.286;8.484;2024-01-15T03:15:25;92949.13;;;-4.85;100.00
39739;BME280;25422;48.286;8.484;2024-01-15T03:17:50;92956.06;;;-4.87;100.00
39739;BME280;25422;48.286;8.484;2024-01-15T03:20:16;92958.50;;;-4.86;100.00
39739;BME280;25422;48.286;8.484;2024-01-15T03:22:41;92960.03;;;-4.83;100.00
39739;BME280;25422;48.286;8.484;2024-01-15T03:25:07;92962.59;;;-4.83;100.00
39739;BME280;25422;48.286;8.484;2024-01-15T03:27:32;92956.69;;;-4.84;100.00
39739;BME280;25422;48.286;8.484;2024-01-15T03:29:58;92952.16;;;-4.80;100.00
39739;BME280;25422;48.286;8.484;2024-01-15T03:32:24;92958.91;;;-4.79;100.00
39739;BME280;25422;48.286;8.484;2024-01-15T03:34:49;92957.25;;;-4.80;100.00
39739;BME280;25422;48.286;8.484;2024-01-15T03:37:15;92956.22;;;-4.78;100.00
39739;BME280;25422;48.286;8.484;2024-01-15T03:39:40;92958.69;;;-4.76;100.00
39739;BME280;25422;48.286;8.484;2024-01-15T03:42:06;92957.75;;;-4.75;100.00
39739;BME280;25422;48.286;8.484;2024-01-15T03:44:32;92954.69;;;-4.67;100.00
39739;BME280;25422;48.286;8.484;2024-01-15T03:46:57;92948.06;;;-4.70;100.00
39739;BME280;25422;48.286;8.484;2024-01-15T03:49:23;92942.03;;;-4.69;100.00
39739;BME280;25422;48.286;8.484;2024-01-15T03:51:48;92943.16;;;-4.73;100.00
39739;BME280;25422;48.286;8.484;2024-01-15T03:54:14;92943.06;;;-4.71;100.00
39739;BME280;25422;48.286;8.484;2024-01-15T03:56:39;92938.19;;;-4.75;100.00
39739;BME280;25422;48.286;8.484;2024-01-15T03:59:04;92930.41;;;-4.73;100.00
39739;BME280;25422;48.286;8.484;2024-01-15T04:01:30;92935.50;;;-4.73;100.00
39739;BME280;25422;48.286;8.484;2024-01-15T04:03:55;92931.94;;;-4.70;100.00
39739;BME280;25422;48.286;8.484;2024-01-15T04:06:21;92923.91;;;-4.77;100.00
39739;BME280;25422;48.286;8.484;2024-01-15T04:08:46;92933.88;;;-4.74;100.00
39739;BME280;25422;48.286;8.484;2024-01-15T04:11:12;92924.00;;;-4.79;100.00
39739;BME280;25422;48.286;8.484;2024-01-15T04:13:37;92924.69;;;-4.77;100.00
39739;BME280;25422;48.286;8.484;2024-01-15T04:16:03;92923.06;;;-4.78;100.00
39739;BME280;25422;48.286;8.484;2024-01-15T04:18:28;92921.47;;;-4.79;100.00
39739;BME280;25422;48.286;8.484;2024-01-15T04:20:54;92931.44;;;-4.76;100.00
39739;BME280;25422;48.286;8.484;2024-01-15T04:23:19;92923.66;;;-4.74;100.00
39739;BME280;25422;48.286;8.484;2024-01-15T04:25:45;92925.41;;;-4.75;100.00
39739;BME280;25422;48.286;8.484;2024-01-15T04:28:11;92927.13;;;-4.75;100.00
39739;BME280;25422;48.286;8.484;2024-01-15T04:30:37;92920.78;;;-4.69;100.00
39739;BME280;25422;48.286;8.484;2024-01-15T04:33:02;92929.28;;;-4.69;100.00
39739;BME280;25422;48.286;8.484;2024-01-15T04:35:28;92923.56;;;-4.72;100.00
39739;BME280;25422;48.286;8.484;2024-01-15T04:37:53;92927.53;;;-4.68;100.00
39739;BME280;25422;48.286;8.484;2024-01-15T04:40:19;92928.56;;;-4.71;100.00
39739;BME280;25422;48.286;8.484;2024-01-15T04:42:44;92926.09;;;-4.72;100.00
39739;BME280;25422;48.286;8.484;2024-01-15T04:45:11;92922.41;;;-4.68;100.00
39739;BME280;25422;48.286;8.484;2024-01-15T04:47:36;92917.09;;;-4.65;100.00
39739;BME280;25422;48.286;8.484;2024-01-15T04:50:03;92922.31;;;-4.67;100.00
39739;BME280;25422;48.286;8.484;2024-01-15T04:52:29;92918.22;;;-4.69;100.00
39739;BME280;25422;48.286;8.484;2024-01-15T04:54:54;92924.41;;;-4.72;100.00
39739;BME280;25422;48.286;8.484;2024-01-15T04:57:20;92909.66;;;-4.68;100.00
39739;BME280;25422;48.286;8.484;2024-01-15T04:59:45;92914.53;;;-4.65;100.00
39739;BME280;25422;48.286;8.484;2024-01-15T05:02:10;92922.19;;;-4.65;100.00
39739;BME280;25422;48.286;8.484;2024-01-15T05:04:36;92921.50;;;-4.67;100.00
39739;BME280;25422;48.286;8.484;2024-01-15T05:07:01;92926.50;;;-4.66;100.00
39739;BME280;25422;48.286;8.484;2024-01-15T05:09:27;92927.53;;;-4.68;100.00
39739;BME280;25422;48.286;8.484;2024-01-15T05:11:54;92921.88;;;-4.61;100.00
39739;BME280;25422;48.286;8.484;2024-01-15T05:14:19;92930.34;;;-4.60;100.00
39739;BME280;25422;48.286;8.484;2024-01-15T05:16:48;92929.66;;;-4.62;100.00
39739;BME280;25422;48.286;8.484;2024-01-15T05:19:14;92917.38;;;-4.57;100.00
39739;BME280;25422;48.286;8.484;2024-01-15T05:21:40;92918.72;;;-4.64;100.00
39739;BME280;25422;48.286;8.484;2024-01-15T05:24:06;92915.03;;;-4.60;100.00
39739;BME280;25422;48.286;8.484;2024-01-15T05:26:31;92915.25;;;-4.63;100.00
39739;BME280;25422;48.286;8.484;2024-01-15T05:28:57;92918.59;;;-4.63;100.00
39739;BME280;25422;48.286;8.484;2024-01-15T05:31:22;92918.84;;;-4.66;100.00
39739;BME280;25422;48.286;8.484;2024-01-15T05:33:48;92910.16;;;-4.63;100.00
39739;BME280;25422;48.286;8.484;2024-01-15T05:36:13;92911.78;;;-4.62;100.00
39739;BME280;25422;48.286;8.484;2024-01-15T05:38:39;92913.19;;;-4.58;100.00
39739;BME280;25422;48.286;8.484;2024-01-15T05:41:05;92909.81;;;-4.59;100.00
39739;BME280;25422;48.286;8.484;2024-01-15T05:43:30;92911.66;;;-4.61;100.00
39739;BME280;25422;48.286;8.484;2024-01-15T05:45:56;92904.94;;;-4.62;100.00
39739;BME280;25422;48.286;8.484;2024-01-15T05:48:21;92902.75;;;-4.55;100.00
39739;BME280;25422;48.286;8.484;2024-01-15T05:50:47;92909.00;;;-4.59;100.00
39739;BME280;25422;48.286;8.484;2024-01-15T05:53:12;92915.03;;;-4.60;100.00
39739;BME280;25422;48.286;8.484;2024-01-15T05:55:38;92904.13;;;-4.62;100.00
39739;BME280;25422;48.286;8.484;2024-01-15T05:58:04;92896.25;;;-4.59;100.00
39739;BME280;25422;48.286;8.484;2024-01-15T06:00:29;92901.56;;;-4.62;100.00
39739;BME280;25422;48.286;8.484;2024-01-15T06:02:55;92909.22;;;-4.62;100.00
39739;BME280;25422;48.286;8.484;2024-01-15T06:05:20;92903.41;;;-4.64;100.00
39739;BME280;25422;48.286;8.484;2024-01-15T06:07:45;92897.50;;;-4.65;100.00
39739;BME280;25422;48.286;8.484;2024-01-15T06:10:11;92895.75;;;-4.64;100.00
39739;BME280;25422;48.286;8.484;2024-01-15T06:12:36;92887.28;;;-4.65;100.00
39739;BME280;25422;48.286;8.484;2024-01-15T06:15:02;92884.63;;;-4.63;100.00
39739;BME280;25422;48.286;8.484;2024-01-15T06:17:27;92888.94;;;-4.64;100.00
39739;BME280;25422;48.286;8.484;2024-01-15T06:19:53;92883.13;;;-4.54;100.00
39739;BME280;25422;48.286;8.484;2024-01-15T06:22:18;92880.13;;;-4.60;100.00
39739;BME280;25422;48.286;8.484;2024-01-15T06:24:44;92885.81;;;-4.56;100.00
39739;BME280;25422;48.286;8.484;2024-01-15T06:27:09;92889.44;;;-4.47;100.00
39739;BME280;25422;48.286;8.484;2024-01-15T06:29:37;92884.91;;;-4.44;100.00
39739;BME280;25422;48.286;8.484;2024-01-15T06:32:03;92878.19;;;-4.45;100.00
39739;BME280;25422;48.286;8.484;2024-01-15T06:34:28;92878.56;;;-4.38;100.00
39739;BME280;25422;48.286;8.484;2024-01-15T06:36:54;92883.31;;;-4.33;100.00
39739;BME280;25422;48.286;8.484;2024-01-15T06:39:19;92881.19;;;-4.40;100.00
39739;BME280;25422;48.286;8.484;2024-01-15T06:41:44;92880.06;;;-4.35;100.00
39739;BME280;25422;48.286;8.484;2024-01-15T06:44:10;92877.50;;;-4.35;100.00
39739;BME280;25422;48.286;8.484;2024-01-15T06:46:36;92879.97;;;-4.34;100.00
39739;BME280;25422;48.286;8.484;2024-01-15T06:49:02;92883.44;;;-4.35;100.00
39739;BME280;25422;48.286;8.484;2024-01-15T06:51:29;92877.97;;;-4.30;100.00
39739;BME280;25422;48.286;8.484;2024-01-15T06:53:54;92873.09;;;-4.33;100.00
39739;BME280;25422;48.286;8.484;2024-01-15T06:56:19;92865.47;;;-4.22;100.00
39739;BME280;25422;48.286;8.484;2024-01-15T06:58:45;92859.78;;;-4.14;100.00
39739;BME280;25422;48.286;8.484;2024-01-15T07:01:10;92860.28;;;-4.20;100.00
39739;BME280;25422;48.286;8.484;2024-01-15T07:03:36;92854.09;;;-4.18;100.00
39739;BME280;25422;48.286;8.484;2024-01-15T07:06:01;92851.53;;;-4.18;100.00
39739;BME280;25422;48.286;8.484;2024-01-15T07:08:27;92850.16;;;-4.11;100.00
39739;BME280;25422;48.286;8.484;2024-01-15T07:10:52;92850.53;;;-4.04;100.00
39739;BME280;25422;48.286;8.484;2024-01-15T07:13:18;92852.97;;;-4.02;100.00
39739;BME280;25422;48.286;8.484;2024-01-15T07:15:43;92853.19;;;-4.05;100.00
39739;BME280;25422;48.286;8.484;2024-01-15T07:18:08;92855.75;;;-4.05;100.00
39739;BME280;25422;48.286;8.484;2024-01-15T07:20:34;92866.91;;;-4.07;100.00
39739;BME280;25422;48.286;8.484;2024-01-15T07:23:00;92860.16;;;-4.08;100.00
39739;BME280;25422;48.286;8.484;2024-01-15T07:25:25;92857.38;;;-4.04;100.00
39739;BME280;25422;48.286;8.484;2024-01-15T07:27:51;92853.78;;;-4.02;100.00
39739;BME280;25422;48.286;8.484;2024-01-15T07:30:19;92853.88;;;-4.03;100.00
39739;BME280;25422;48.286;8.484;2024-01-15T07:32:44;92855.63;;;-4.04;100.00
39739;BME280;25422;48.286;8.484;2024-01-15T07:35:10;92852.63;;;-3.86;100.00
39739;BME280;25422;48.286;8.484;2024-01-15T07:37:35;92849.50;;;-3.90;100.00
39739;BME280;25422;48.286;8.484;2024-01-15T07:40:01;92844.72;;;-3.83;100.00
39739;BME280;25422;48.286;8.484;2024-01-15T07:42:26;92844.25;;;-3.77;100.00
39739;BME280;25422;48.286;8.484;2024-01-15T07:44:51;92848.44;;;-3.76;100.00
39739;BME280;25422;48.286;8.484;2024-01-15T07:47:17;92851.13;;;-3.78;100.00
39739;BME280;25422;48.286;8.484;2024-01-15T07:49:43;92856.34;;;-3.79;100.00
39739;BME280;25422;48.286;8.484;2024-01-15T07:52:09;92850.75;;;-3.73;100.00
39739;BME280;25422;48.286;8.484;2024-01-15T07:54:35;92854.72;;;-3.69;100.00
39739;BME280;25422;48.286;8.484;2024-01-15T07:57:01;92845.06;;;-3.65;100.00
39739;BME280;25422;48.286;8.484;2024-01-15T07:59:30;92844.94;;;-3.64;100.00
39739;BME280;25422;48.286;8.484;2024-01-15T08:01:56;92847.50;;;-3.52;100.00
39739;BME280;25422;48.286;8.484;2024-01-15T08:04:21;92839.09;;;-3.43;100.00
39739;BME280;25422;48.286;8.484;2024-01-15T08:06:49;92852.47;;;-3.40;100.00
39739;BME280;25422;48.286;8.484;2024-01-15T08:09:15;92843.75;;;-3.37;100.00
39739;BME280;25422;48.286;8.484;2024-01-15T08:11:40;92856.66;;;-3.39;100.00
39739;BME280;25422;48.286;8.484;2024-01-15T08:14:10;92859.47;;;-3.42;100.00
39739;BME280;25422;48.286;8.484;2024-01-15T08:16:38;92860.03;;;-3.38;100.00
39739;BME280;25422;48.286;8.484;2024-01-15T08:19:04;92864.22;;;-3.37;100.00
39739;BME280;25422;48.286;8.484;2024-01-15T08:21:30;92866.09;;;-3.39;100.00
39739;BME280;25422;48.286;8.484;2024-01-15T08:24:00;92874.91;;;-3.43;100.00
39739;BME280;25422;48.286;8.484;2024-01-15T08:26:26;92872.34;;;-3.43;100.00
39739;BME280;25422;48.286;8.484;2024-01-15T08:28:51;92879.13;;;-3.53;100.00
39739;BME280;25422;48.286;8.484;2024-01-15T08:31:17;92882.34;;;-3.51;100.00
39739;BME280;25422;48.286;8.484;2024-01-15T08:33:43;92881.53;;;-3.52;100.00
39739;BME280;25422;48.286;8.484;2024-01-15T08:36:11;92877.59;;;-3.56;100.00
39739;BME280;25422;48.286;8.484;2024-01-15T08:38:37;92877.59;;;-3.56;100.00
39739;BME280;25422;48.286;8.484;2024-01-15T08:41:02;92866.91;;;-3.61;100.00
39739;BME280;25422;48.286;8.484;2024-01-15T08:43:28;92868.53;;;-3.60;100.00
39739;BME280;25422;48.286;8.484;2024-01-15T08:45:54;92870.53;;;-3.52;100.00
39739;BME280;25422;48.286;8.484;2024-01-15T08:48:19;92856.06;;;-3.42;100.00
39739;BME280;25422;48.286;8.484;2024-01-15T08:50:45;92845.44;;;-3.15;100.00
39739;BME280;25422;48.286;8.484;2024-01-15T08:53:13;92852.56;;;-3.18;100.00
39739;BME280;25422;48.286;8.484;2024-01-15T08:55:39;92854.28;;;-3.08;100.00
39739;BME280;25422;48.286;8.484;2024-01-15T08:58:04;92848.31;;;-2.97;100.00
39739;BME280;25422;48.286;8.484;2024-01-15T09:00:31;92849.84;;;-2.94;100.00
39739;BME280;25422;48.286;8.484;2024-01-15T09:02:57;92845.84;;;-2.87;100.00
39739;BME280;25422;48.286;8.484;2024-01-15T09:05:22;92852.47;;;-2.84;100.00
39739;BME280;25422;48.286;8.484;2024-01-15T09:07:48;92844.59;;;-2.72;100.00
39739;BME280;25422;48.286;8.484;2024-01-15T09:10:14;92844.94;;;-2.65;100.00
39739;BME280;25422;48.286;8.484;2024-01-15T09:12:39;92845.81;;;-2.55;100.00
39739;BME280;25422;48.286;8.484;2024-01-15T09:15:05;92841.03;;;-2.48;100.00
39739;BME280;25422;48.286;8.484;2024-01-15T09:17:32;92838.94;;;-2.54;100.00
39739;BME280;25422;48.286;8.484;2024-01-15T09:19:58;92837.06;;;-2.31;100.00
39739;BME280;25422;48.286;8.484;2024-01-15T09:22:23;92832.78;;;-2.30;100.00
39739;BME280;25422;48.286;8.484;2024-01-15T09:24:49;92837.47;;;-2.35;100.00
39739;BME280;25422;48.286;8.484;2024-01-15T09:27:14;92824.53;;;-2.13;100.00
39739;BME280;25422;48.286;8.484;2024-01-15T09:29:41;92836.63;;;-2.15;100.00
39739;BME280;25422;48.286;8.484;2024-01-15T09:32:07;92848.09;;;-2.19;100.00
39739;BME280;25422;48.286;8.484;2024-01-15T09:34:34;92846.13;;;-2.27;100.00
39739;BME280;25422;48.286;8.484;2024-01-15T09:36:59;92837.06;;;-2.31;100.00
39739;BME280;25422;48.286;8.484;2024-01-15T09:39:29;92833.72;;;-2.10;100.00
39739;BME280;25422;48.286;8.484;2024-01-15T09:41:56;92833.72;;;-2.10;100.00
39739;BME280;25422;48.286;8.484;2024-01-15T09:44:22;92845.25;;;-2.16;100.00
39739;BME280;25422;48.286;8.484;2024-01-15T09:46:49;92839.66;;;-2.10;100.00
39739;BME280;25422;48.286;8.484;2024-01-15T09:49:17;92835.63;;;-2.03;100.00
39739;BME280;25422;48.286;8.484;2024-01-15T09:51:44;92833.53;;;-1.88;100.00
39739;BME280;25422;48.286;8.484;2024-01-15T09:54:09;92840.25;;;-2.17;100.00
39739;BME280;25422;48.286;8.484;2024-01-15T09:56:38;92842.03;;;-2.18;100.00
39739;BME280;25422;48.286;8.484;2024-01-15T09:59:05;92833.31;;;-2.06;100.00
39739;BME280;25422;48.286;8.484;2024-01-15T10:01:35;92839.81;;;-1.80;100.00
39739;BME280;25422;48.286;8.484;2024-01-15T10:04:02;92832.47;;;-1.85;100.00
39739;BME280;25422;48.286;8.484;2024-01-15T10:06:28;92829.47;;;-1.90;100.00
39739;BME280;25422;48.286;8.484;2024-01-15T10:08:54;92829.59;;;-1.92;100.00
39739;BME280;25422;48.286;8.484;2024-01-15T10:11:21;92824.88;;;-1.96;100.00
39739;BME280;25422;48.286;8.484;2024-01-15T10:13:47;92820.16;;;-2.22;100.00
39739;BME280;25422;48.286;8.484;2024-01-15T10:16:16;92823.72;;;-2.34;100.00
39739;BME280;25422;48.286;8.484;2024-01-15T10:18:41;92823.34;;;-2.30;100.00
39739;BME280;25422;48.286;8.484;2024-01-15T10:21:07;92832.34;;;-2.35;100.00
39739;BME280;25422;48.286;8.484;2024-01-15T10:23:33;92824.09;;;-2.39;100.00
39739;BME280;25422;48.286;8.484;2024-01-15T10:25:59;92822.41;;;-2.29;100.00
39739;BME280;25422;48.286;8.484;2024-01-15T10:28:28;92812.78;;;-2.15;100.00
39739;BME280;25422;48.286;8.484;2024-01-15T10:30:56;92808.66;;;-1.97;100.00
39739;BME280;25422;48.286;8.484;2024-01-15T10:33:22;92803.06;;;-1.81;100.00
39739;BME280;25422;48.286;8.484;2024-01-15T10:35:55;92799.72;;;-1.81;100.00
39739;BME280;25422;48.286;8.484;2024-01-15T10:38:20;92799.25;;;-1.96;100.00
39739;BME280;25422;48.286;8.484;2024-01-15T10:40:56;92789.88;;;-2.07;100.00
39739;BME280;25422;48.286;8.484;2024-01-15T10:43:22;92803.63;;;-2.08;100.00
39739;BME280;25422;48.286;8.484;2024-01-15T10:45:49;92802.00;;;-2.09;100.00
39739;BME280;25422;48.286;8.484;2024-01-15T10:48:17;92793.25;;;-2.07;100.00
39739;BME280;25422;48.286;8.484;2024-01-15T10:50:47;92794.19;;;-2.08;100.00
39739;BME280;25422;48.286;8.484;2024-01-15T10:53:13;92800.09;;;-2.17;100.00
39739;BME280;25422;48.286;8.484;2024-01-15T10:55:41;92803.34;;;-2.15;100.00
39739;BME280;25422;48.286;8.484;2024-01-15T10:58:08;92801.56;;;-2.14;100.00
39739;BME280;25422;48.286;8.484;2024-01-15T11:00:35;92797.22;;;-2.24;100.00
39739;BME280;25422;48.286;8.484;2024-01-15T11:03:01;92798.47;;;-2.18;100.00
39739;BME280;25422;48.286;8.484;2024-01-15T11:05:28;92787.28;;;-2.17;100.00
39739;BME280;25422;48.286;8.484;2024-01-15T11:07:58;92793.88;;;-2.14;100.00
39739;BME280;25422;48.286;8.484;2024-01-15T11:13:04;92797.09;;;-2.22;100.00
39739;BME280;25422;48.286;8.484;2024-01-15T11:15:30;92795.50;;;-2.13;100.00
39739;BME280;25422;48.286;8.484;2024-01-15T11:18:00;92791.97;;;-2.22;100.00
39739;BME280;25422;48.286;8.484;2024-01-15T11:20:26;92793.00;;;-2.34;100.00
39739;BME280;25422;48.286;8.484;2024-01-15T11:22:51;92786.97;;;-2.45;100.00
39739;BME280;25422;48.286;8.484;2024-01-15T11:25:20;92799.00;;;-2.45;100.00
39739;BME280;25422;48.286;8.484;2024-01-15T11:27:47;92789.16;;;-2.40;100.00
39739;BME280;25422;48.286;8.484;2024-01-15T11:30:17;92791.00;;;-2.52;100.00
39739;BME280;25422;48.286;8.484;2024-01-15T11:32:43;92797.47;;;-2.27;100.00
39739;BME280;25422;48.286;8.484;2024-01-15T11:35:15;92794.28;;;-2.40;100.00
39739;BME280;25422;48.286;8.484;2024-01-15T11:40:21;92799.28;;;-2.60;100.00
39739;BME280;25422;48.286;8.484;2024-01-15T11:42:48;92794.00;;;-2.47;100.00
39739;BME280;25422;48.286;8.484;2024-01-15T11:45:20;92789.66;;;-2.67;100.00
39739;BME280;25422;48.286;8.484;2024-01-15T11:48:09;92791.66;;;-2.50;100.00
39739;BME280;25422;48.286;8.484;2024-01-15T11:50:39;92783.16;;;-2.29;100.00
39739;BME280;25422;48.286;8.484;2024-01-15T11:53:16;92779.47;;;-2.37;100.00
39739;BME280;25422;48.286;8.484;2024-01-15T11:55:44;92784.28;;;-2.22;100.00
39739;BME280;25422;48.286;8.484;2024-01-15T11:58:14;92776.25;;;-2.08;100.00
39739;BME280;25422;48.286;8.484;2024-01-15T12:00:41;92764.16;;;-1.96;100.00
39739;BME280;25422;48.286;8.484;2024-01-15T12:03:08;92757.69;;;-1.90;100.00
39739;BME280;25422;48.286;8.484;2024-01-15T12:05:36;92753.44;;;-1.80;100.00
39739;BME280;25422;48.286;8.484;2024-01-15T12:08:02;92750.50;;;-1.65;100.00
39739;BME280;25422;48.286;8.484;2024-01-15T12:10:27;92754.16;;;-1.58;100.00
39739;BME280;25422;48.286;8.484;2024-01-15T12:13:00;92754.94;;;-1.77;100.00
39739;BME280;25422;48.286;8.484;2024-01-15T12:15:27;92754.53;;;-1.73;100.00
39739;BME280;25422;48.286;8.484;2024-01-15T12:18:01;92761.91;;;-1.89;100.00
39739;BME280;25422;48.286;8.484;2024-01-15T12:20:31;92767.97;;;-1.90;100.00
39739;BME280;25422;48.286;8.484;2024-01-15T12:22:57;92769.03;;;-2.24;100.00
39739;BME280;25422;48.286;8.484;2024-01-15T12:25:24;92767.19;;;-2.12;100.00
39739;BME280;25422;48.286;8.484;2024-01-15T12:27:51;92773.16;;;-2.11;100.00
39739;BME280;25422;48.286;8.484;2024-01-15T12:30:16;92754.66;;;-2.15;100.00
39739;BME280;25422;48.286;8.484;2024-01-15T12:32:42;92757.63;;;-2.10;100.00
39739;BME280;25422;48.286;8.484;2024-01-15T12:35:10;92763.03;;;-2.13;100.00
39739;BME280;25422;48.286;8.484;2024-01-15T12:37:36;92751.72;;;-2.10;100.00
39739;BME280;25422;48.286;8.484;2024-01-15T12:40:03;92754.34;;;-2.22;100.00
39739;BME280;25422;48.286;8.484;2024-01-15T12:42:30;92756.34;;;-2.25;100.00
39739;BME280;25422;48.286;8.484;2024-01-15T12:44:56;92748.25;;;-2.30;100.00
39739;BME280;25422;48.286;8.484;2024-01-15T12:47:22;92750.53;;;-2.27;100.00
39739;BME280;25422;48.286;8.484;2024-01-15T12:49:48;92747.81;;;-2.35;100.00